Aviation Digital Data Service (ADDS)

Output produced by METARs form (0015 UTC 31 March 2015)
found at http://aviationweather.gov/adds/metars/
 
KEWN 302320Z 3100/3124 VRB03KT P6SM SKC 
     FM311700 22012G20KT P6SM SKC